createdAt,value
2022-10-19T00:00:22.454Z,41.38
2022-10-19T00:03:08.156Z,40.50
2022-10-19T00:05:53.722Z,43.72
2022-10-19T00:08:39.654Z,40.85
2022-10-19T00:11:26.203Z,41.15
2022-10-19T00:14:15.755Z,43.20
2022-10-19T00:17:01.276Z,42.45
2022-10-19T00:19:46.734Z,40.10
2022-10-19T00:22:32.789Z,41.60
2022-10-19T00:25:18.592Z,40.65
2022-10-19T00:28:04.734Z,41.72
2022-10-19T00:30:50.517Z,40.95
2022-10-19T00:33:36.535Z,42.72
2022-10-19T00:36:26.017Z,43.25
2022-10-19T00:39:14.050Z,41.88
2022-10-19T00:41:59.633Z,42.00
2022-10-19T00:44:48.257Z,41.58
2022-10-19T00:47:34.723Z,43.10
2022-10-19T00:50:20.598Z,40.13
2022-10-19T00:53:06.668Z,43.25
2022-10-19T00:55:52.367Z,42.78
2022-10-19T00:58:39.614Z,41.53
2022-10-19T01:01:27.371Z,40.88
2022-10-19T01:04:13.921Z,40.45
2022-10-19T01:07:00.309Z,40.05
2022-10-19T01:09:46.485Z,41.08
2022-10-19T01:12:42.020Z,41.67
2022-10-19T01:15:42.346Z,41.10
2022-10-19T01:18:49.907Z,42.88
2022-10-19T01:21:46.073Z,41.33
2022-10-19T01:24:46.888Z,41.40
2022-10-19T01:28:04.542Z,40.97
2022-10-19T01:31:00.647Z,38.95
2022-10-19T01:33:54.628Z,40.92
2022-10-19T01:37:02.010Z,39.83
2022-10-19T01:39:49.843Z,39.38
2022-10-19T01:42:59.698Z,39.72
2022-10-19T01:45:54.382Z,38.00
2022-10-19T01:48:43.418Z,37.92
2022-10-19T01:51:38.528Z,36.00
2022-10-19T01:54:27.488Z,35.92
2022-10-19T01:57:19.618Z,36.78
2022-10-19T02:00:07.888Z,37.60
2022-10-19T02:03:01.234Z,37.70
2022-10-19T02:05:49.621Z,34.83
2022-10-19T02:08:46.615Z,35.05
2022-10-19T02:11:33.183Z,36.67
2022-10-19T02:14:23.498Z,36.45
2022-10-19T02:17:12.642Z,35.40
2022-10-19T02:19:59.246Z,35.17
2022-10-19T02:22:45.733Z,36.30
2022-10-19T02:25:32.380Z,37.17
2022-10-19T02:28:18.096Z,39.03
2022-10-19T02:31:03.899Z,38.70
2022-10-19T02:33:49.852Z,39.05
2022-10-19T02:36:35.590Z,40.17
2022-10-19T02:39:21.834Z,40.00
2022-10-19T02:42:24.631Z,41.20
2022-10-19T02:45:23.318Z,42.55
2022-10-19T02:48:16.842Z,40.92
2022-10-19T02:51:02.738Z,42.97
2022-10-19T02:53:48.153Z,41.17
2022-10-19T02:56:35.108Z,40.95
2022-10-19T02:59:20.669Z,41.20
2022-10-19T03:02:06.242Z,39.58
2022-10-19T03:04:52.016Z,40.17
2022-10-19T03:07:37.941Z,41.13
2022-10-19T03:10:23.774Z,42.10
2022-10-19T03:13:09.297Z,41.50
2022-10-19T03:15:54.773Z,42.17
2022-10-19T03:18:40.737Z,42.15
2022-10-19T03:21:26.278Z,41.10
2022-10-19T03:24:13.005Z,42.15
2022-10-19T03:26:58.709Z,41.70
2022-10-19T03:29:44.135Z,40.78
2022-10-19T03:32:29.883Z,42.35
2022-10-19T03:35:15.202Z,41.90
2022-10-19T03:38:00.927Z,40.13
2022-10-19T03:40:46.610Z,40.35
2022-10-19T03:43:32.255Z,39.60
2022-10-19T03:46:18.938Z,39.47
2022-10-19T03:49:05.331Z,40.25
2022-10-19T03:51:50.861Z,38.90
2022-10-19T03:54:36.405Z,40.30
2022-10-19T03:57:22.009Z,40.38
2022-10-19T04:00:09.117Z,41.80
2022-10-19T04:02:58.049Z,39.58
2022-10-19T04:05:43.763Z,40.72
2022-10-19T04:08:29.821Z,41.08
2022-10-19T04:11:23.136Z,39.25
2022-10-19T04:17:04.367Z,38.33
2022-10-19T04:19:50.258Z,39.83
2022-10-19T04:22:35.798Z,37.33
2022-10-19T04:25:21.735Z,38.42
2022-10-19T04:28:07.423Z,37.25
2022-10-19T04:30:53.169Z,38.25
2022-10-19T04:33:39.259Z,37.95
2022-10-19T04:36:25.123Z,38.17
2022-10-19T04:39:11.432Z,38.38
2022-10-19T04:41:57.065Z,37.55
2022-10-19T04:44:42.777Z,41.10
2022-10-19T04:47:29.669Z,40.25
2022-10-19T04:50:15.266Z,39.45
2022-10-19T04:53:01.179Z,40.90
2022-10-19T04:55:46.741Z,40.85
2022-10-19T04:58:32.879Z,40.25
2022-10-19T05:01:20.981Z,41.10
2022-10-19T05:04:06.731Z,40.70
2022-10-19T05:06:52.107Z,40.67
2022-10-19T05:09:40.337Z,38.97
2022-10-19T05:12:25.957Z,40.05
2022-10-19T05:15:11.569Z,39.30
2022-10-19T05:17:57.689Z,40.60
2022-10-19T05:20:43.240Z,38.30
2022-10-19T05:26:28.067Z,41.17
2022-10-19T05:29:14.668Z,40.55
2022-10-19T05:32:00.359Z,37.70
2022-10-19T05:34:46.090Z,39.05
2022-10-19T05:37:32.170Z,39.03
2022-10-19T05:40:17.877Z,38.65
2022-10-19T05:43:03.535Z,38.63
2022-10-19T05:45:49.119Z,39.30
2022-10-19T05:48:35.821Z,39.00
2022-10-19T05:51:22.619Z,41.33
2022-10-19T05:54:08.593Z,39.63
2022-10-19T05:56:53.966Z,40.60
2022-10-19T05:59:39.630Z,42.15
2022-10-19T06:02:25.113Z,38.95
2022-10-19T06:05:10.695Z,41.15
2022-10-19T06:07:56.805Z,39.83
2022-10-19T06:10:43.044Z,39.05
2022-10-19T06:13:28.716Z,38.42
2022-10-19T06:16:16.065Z,38.25
2022-10-19T06:19:01.932Z,38.28
2022-10-19T06:21:47.511Z,38.50
2022-10-19T06:24:32.985Z,39.03
2022-10-19T06:27:18.562Z,36.88
2022-10-19T06:30:04.775Z,37.30
2022-10-19T06:32:50.236Z,35.53
2022-10-19T06:35:35.711Z,34.22
2022-10-19T06:38:21.182Z,33.15
2022-10-19T06:41:07.273Z,31.60
2022-10-19T06:43:54.914Z,33.00
2022-10-19T06:46:40.758Z,34.83
2022-10-19T06:49:26.382Z,32.50
2022-10-19T06:52:12.097Z,32.97
2022-10-19T06:54:57.595Z,34.53
2022-10-19T06:57:43.785Z,34.13
2022-10-19T07:00:29.985Z,36.45
2022-10-19T07:03:15.607Z,34.60
2022-10-19T07:06:03.357Z,34.60
2022-10-19T07:08:49.824Z,35.55
2022-10-19T07:11:35.390Z,34.38
2022-10-19T07:14:21.303Z,36.47
2022-10-19T07:17:07.657Z,35.50
2022-10-19T07:19:53.130Z,37.40
2022-10-19T07:22:38.638Z,35.03
2022-10-19T07:25:24.974Z,37.42
2022-10-19T07:28:11.018Z,36.78
2022-10-19T07:30:57.278Z,36.05
2022-10-19T07:33:42.796Z,37.83
2022-10-19T07:36:30.431Z,37.75
2022-10-19T07:39:19.727Z,37.78
2022-10-19T07:42:05.519Z,37.47
2022-10-19T07:44:50.978Z,37.58
2022-10-19T07:47:36.607Z,36.60
2022-10-19T07:50:25.056Z,38.58
2022-10-19T07:53:10.440Z,37.45
2022-10-19T07:55:56.226Z,37.88
2022-10-19T07:58:42.577Z,38.30
2022-10-19T08:01:30.682Z,35.47
2022-10-19T08:07:23.163Z,36.88
2022-10-19T08:10:09.516Z,36.38
2022-10-19T08:12:55.618Z,38.28
2022-10-19T08:15:41.475Z,37.83
2022-10-19T08:18:27.750Z,37.60
2022-10-19T08:21:16.912Z,41.08
2022-10-19T08:24:03.474Z,39.85
2022-10-19T08:26:51.371Z,39.15
2022-10-19T08:29:37.309Z,39.60
2022-10-19T08:32:23.024Z,38.97
2022-10-19T08:35:10.719Z,40.35
2022-10-19T08:37:58.706Z,36.92
2022-10-19T08:40:45.789Z,38.33
2022-10-19T08:43:38.803Z,38.67
2022-10-19T08:46:24.234Z,35.20
2022-10-19T08:49:20.363Z,34.70
2022-10-19T08:52:11.685Z,32.63
2022-10-19T08:54:58.628Z,35.17
2022-10-19T08:58:18.563Z,34.83
2022-10-19T09:01:07.302Z,32.33
2022-10-19T09:04:23.454Z,33.88
2022-10-19T09:07:26.842Z,30.38
2022-10-19T09:13:04.234Z,32.60
2022-10-19T09:15:52.402Z,25.50
2022-10-19T09:18:38.315Z,33.40
2022-10-19T09:21:38.053Z,31.10
2022-10-19T09:24:38.785Z,26.02
2022-10-19T09:27:37.333Z,24.60
2022-10-19T09:30:24.104Z,21.63
2022-10-19T09:33:19.042Z,18.13
2022-10-19T09:36:07.944Z,20.75
2022-10-19T09:38:53.572Z,21.85
2022-10-19T09:41:53.890Z,21.85
2022-10-19T09:44:39.918Z,26.45
2022-10-19T09:47:39.881Z,25.20
2022-10-19T09:50:31.297Z,30.27
2022-10-19T09:53:22.123Z,27.02
2022-10-19T09:56:09.000Z,27.85
2022-10-19T09:58:59.373Z,26.00
2022-10-19T10:01:45.375Z,26.13
2022-10-19T10:04:31.279Z,25.33
2022-10-19T10:07:18.708Z,24.98
2022-10-19T10:10:19.419Z,28.73
2022-10-19T10:13:06.030Z,28.98
2022-10-19T10:16:00.805Z,29.40
2022-10-19T10:18:59.894Z,28.65
2022-10-19T10:21:47.154Z,27.40
2022-10-19T10:24:34.416Z,27.45
2022-10-19T10:27:33.743Z,24.90
2022-10-19T10:30:19.766Z,31.08
2022-10-19T10:33:21.147Z,25.60
2022-10-19T10:36:12.406Z,27.65
2022-10-19T10:39:08.426Z,29.13
2022-10-19T10:41:55.291Z,26.60
2022-10-19T10:44:48.971Z,26.08
2022-10-19T10:47:39.353Z,34.10
2022-10-19T10:50:31.529Z,33.10
2022-10-19T10:53:35.776Z,27.98
2022-10-19T10:56:26.842Z,28.17
2022-10-19T10:59:24.199Z,29.02
2022-10-19T11:05:21.209Z,30.92
2022-10-19T11:08:12.512Z,30.75
2022-10-19T11:11:15.142Z,29.02
2022-10-19T11:14:17.286Z,28.70
2022-10-19T11:17:14.178Z,28.20
2022-10-19T11:19:59.898Z,25.92
2022-10-19T11:23:12.081Z,30.90
2022-10-19T11:26:16.363Z,27.65
2022-10-19T11:29:02.250Z,25.52
2022-10-19T11:31:55.042Z,31.13
2022-10-19T11:35:06.950Z,33.78
2022-10-19T11:38:30.632Z,28.52
2022-10-19T11:41:19.508Z,30.67
2022-10-19T11:44:17.168Z,30.90
2022-10-19T11:47:11.692Z,31.15
2022-10-19T11:50:10.517Z,33.92
2022-10-19T11:53:18.423Z,31.00
2022-10-19T11:56:04.434Z,28.67
2022-10-19T12:02:41.283Z,28.23
2022-10-19T12:05:52.603Z,25.55
2022-10-19T12:08:51.283Z,20.00
2022-10-19T12:11:58.333Z,30.48
2022-10-19T12:14:46.958Z,30.83
2022-10-19T12:17:37.051Z,32.92
2022-10-19T12:20:39.837Z,31.90
2022-10-19T12:23:38.894Z,35.03
2022-10-19T12:26:27.463Z,33.20
2022-10-19T12:29:23.262Z,28.20
2022-10-19T12:32:13.206Z,30.67
2022-10-19T12:35:09.408Z,29.55
2022-10-19T12:38:03.706Z,29.08
2022-10-19T12:41:05.319Z,30.10
2022-10-19T12:44:17.907Z,29.45
2022-10-19T12:47:18.818Z,30.80
2022-10-19T12:50:05.097Z,29.67
2022-10-19T12:52:52.884Z,28.08
2022-10-19T12:55:40.312Z,31.38
2022-10-19T12:58:47.754Z,29.52
2022-10-19T13:01:36.588Z,26.35
2022-10-19T13:04:28.894Z,22.70
2022-10-19T13:07:18.626Z,30.88
2022-10-19T13:10:07.648Z,31.92
2022-10-19T13:12:54.416Z,23.98
2022-10-19T13:15:39.826Z,24.33
2022-10-19T13:18:59.810Z,23.25
2022-10-19T13:22:26.668Z,27.70
2022-10-19T13:25:29.773Z,25.60
2022-10-19T13:28:15.652Z,28.75
2022-10-19T13:31:06.117Z,30.88
2022-10-19T13:33:55.908Z,30.33
2022-10-19T13:37:00.467Z,28.63
2022-10-19T13:39:47.625Z,24.73
2022-10-19T13:42:33.810Z,21.60
2022-10-19T13:45:24.475Z,27.00
2022-10-19T13:48:27.286Z,27.60
2022-10-19T13:51:21.862Z,22.35
2022-10-19T13:54:29.350Z,22.17
2022-10-19T13:57:33.946Z,28.30
2022-10-19T14:00:51.063Z,29.80
2022-10-19T14:03:42.446Z,26.83
2022-10-19T14:06:47.331Z,29.88
2022-10-19T14:09:41.825Z,28.40
2022-10-19T14:12:30.966Z,29.77
2022-10-19T14:15:29.534Z,31.33
2022-10-19T14:18:27.781Z,29.23
2022-10-19T14:21:13.851Z,29.48
2022-10-19T14:24:00.155Z,29.75
2022-10-19T14:26:46.802Z,29.85
2022-10-19T14:29:42.865Z,26.65
2022-10-19T14:32:30.257Z,27.60
2022-10-19T14:35:28.211Z,28.77
2022-10-19T14:38:27.903Z,31.80
2022-10-19T14:41:21.594Z,29.15
2022-10-19T14:44:40.364Z,22.45
2022-10-19T14:47:30.439Z,29.48
2022-10-19T14:50:16.184Z,28.45
2022-10-19T14:53:40.322Z,32.42
2022-10-19T14:56:38.266Z,28.27
2022-10-19T14:59:32.660Z,31.58
2022-10-19T15:02:27.032Z,30.52
2022-10-19T15:05:26.291Z,25.42
2022-10-19T15:08:34.670Z,32.55
2022-10-19T15:11:47.595Z,23.83
2022-10-19T15:14:33.884Z,32.70
2022-10-19T15:17:30.885Z,30.90
2022-10-19T15:20:24.169Z,27.88
2022-10-19T15:23:32.705Z,23.55
2022-10-19T15:26:27.011Z,30.35
2022-10-19T15:29:57.628Z,30.17
2022-10-19T15:32:44.554Z,30.10
2022-10-19T15:35:35.070Z,30.40
2022-10-19T15:38:25.587Z,28.50
2022-10-19T15:41:20.899Z,28.17
2022-10-19T15:44:27.254Z,28.02
2022-10-19T15:47:15.574Z,27.35
2022-10-19T15:50:02.891Z,27.05
2022-10-19T15:52:48.586Z,26.13
2022-10-19T15:55:34.594Z,31.55
2022-10-19T15:58:21.563Z,26.25
2022-10-19T16:01:19.458Z,27.25
2022-10-19T16:04:05.599Z,25.92
2022-10-19T16:06:51.456Z,25.92
2022-10-19T16:09:37.267Z,28.02
2022-10-19T16:12:24.325Z,27.50
2022-10-19T16:15:17.404Z,26.70
2022-10-19T16:20:48.495Z,29.00
2022-10-19T16:23:39.396Z,24.95
2022-10-19T16:26:28.258Z,23.95
2022-10-19T16:29:13.792Z,24.35
2022-10-19T16:31:59.646Z,24.67
2022-10-19T16:34:46.622Z,22.02
2022-10-19T16:37:32.422Z,28.33
2022-10-19T16:40:18.035Z,29.42
2022-10-19T16:43:04.538Z,27.52
2022-10-19T16:45:50.060Z,28.05
2022-10-19T16:48:35.964Z,30.15
2022-10-19T16:51:35.675Z,28.23
2022-10-19T16:54:21.503Z,29.30
2022-10-19T16:57:09.762Z,28.90
2022-10-19T16:59:55.796Z,28.63
2022-10-19T17:02:44.315Z,31.70
2022-10-19T17:05:32.030Z,32.28
2022-10-19T17:08:21.623Z,32.05
2022-10-19T17:11:38.106Z,33.63
2022-10-19T17:14:23.937Z,33.35
2022-10-19T17:17:10.869Z,35.47
2022-10-19T17:19:56.259Z,35.65
2022-10-19T17:22:41.926Z,34.28
2022-10-19T17:25:27.533Z,34.53
2022-10-19T17:28:13.294Z,35.97
2022-10-19T17:31:04.131Z,33.65
2022-10-19T17:33:50.169Z,35.10
2022-10-19T17:36:41.681Z,34.17
2022-10-19T17:39:29.948Z,34.20
2022-10-19T17:42:15.564Z,33.65
2022-10-19T17:45:01.279Z,34.78
2022-10-19T17:47:47.018Z,34.22
2022-10-19T17:50:32.911Z,33.88
2022-10-19T17:53:18.493Z,33.05
2022-10-19T17:56:06.561Z,33.40
2022-10-19T17:58:52.558Z,32.20
2022-10-19T18:01:38.022Z,32.58
2022-10-19T18:04:23.563Z,33.63
2022-10-19T18:07:09.355Z,31.77
2022-10-19T18:09:54.938Z,32.45
2022-10-19T18:12:40.714Z,31.67
2022-10-19T18:15:26.231Z,31.80
2022-10-19T18:18:11.934Z,30.15
2022-10-19T18:20:57.781Z,30.65
2022-10-19T18:23:44.009Z,31.17
2022-10-19T18:26:32.076Z,30.90
2022-10-19T18:29:21.438Z,31.95
2022-10-19T18:32:07.174Z,31.23
2022-10-19T18:34:52.903Z,32.85
2022-10-19T18:37:38.746Z,31.45
2022-10-19T18:40:24.302Z,33.80
2022-10-19T18:43:10.033Z,32.90
2022-10-19T18:45:58.064Z,34.40
2022-10-19T18:48:43.746Z,33.95
2022-10-19T18:51:29.391Z,32.58
2022-10-19T18:54:15.201Z,35.60
2022-10-19T18:57:00.862Z,34.28
2022-10-19T18:59:47.402Z,34.28
2022-10-19T19:02:46.498Z,35.85
2022-10-19T19:05:33.377Z,34.53
2022-10-19T19:08:19.121Z,32.47
2022-10-19T19:11:20.326Z,32.55
2022-10-19T19:14:10.830Z,33.72
2022-10-19T19:16:56.735Z,32.97
2022-10-19T19:19:42.201Z,33.00
2022-10-19T19:22:27.530Z,33.00
2022-10-19T19:25:13.050Z,33.95
2022-10-19T19:27:58.558Z,35.00
2022-10-19T19:30:46.361Z,34.25
2022-10-19T19:33:33.093Z,34.00
2022-10-19T19:36:19.517Z,34.20
2022-10-19T19:39:05.517Z,34.00
2022-10-19T19:41:51.435Z,35.13
2022-10-19T19:44:36.965Z,32.90
2022-10-19T19:47:23.118Z,34.05
2022-10-19T19:50:09.066Z,33.83
2022-10-19T19:52:55.022Z,33.70
2022-10-19T19:55:40.374Z,34.20
2022-10-19T19:58:26.555Z,32.15
2022-10-19T20:01:15.608Z,34.03
2022-10-19T20:06:53.227Z,32.88
2022-10-19T20:09:38.911Z,35.70
2022-10-19T20:12:24.463Z,33.97
2022-10-19T20:15:14.474Z,34.30
2022-10-19T20:17:59.798Z,35.20
2022-10-19T20:20:45.409Z,35.75
2022-10-19T20:23:31.739Z,37.08
2022-10-19T20:26:22.612Z,36.35
2022-10-19T20:29:07.942Z,38.08
2022-10-19T20:31:53.495Z,38.60
2022-10-19T20:34:39.406Z,38.10
2022-10-19T20:37:26.060Z,38.33
2022-10-19T20:40:11.974Z,38.67
2022-10-19T20:42:57.510Z,38.30
2022-10-19T20:45:43.025Z,38.95
2022-10-19T20:48:29.448Z,40.92
2022-10-19T20:51:20.440Z,40.15
2022-10-19T20:54:08.726Z,38.60
2022-10-19T20:56:54.542Z,39.25
2022-10-19T20:59:40.223Z,36.15
2022-10-19T21:02:26.406Z,37.50
2022-10-19T21:05:11.861Z,39.78
2022-10-19T21:07:57.448Z,38.72
2022-10-19T21:10:43.138Z,35.50
2022-10-19T21:13:28.853Z,34.13
2022-10-19T21:16:17.686Z,36.33
2022-10-19T21:19:06.373Z,35.78
2022-10-19T21:21:57.366Z,35.17
2022-10-19T21:24:42.828Z,36.60
2022-10-19T21:27:28.470Z,36.53
2022-10-19T21:30:14.632Z,38.38
2022-10-19T21:33:00.354Z,38.65
2022-10-19T21:35:46.169Z,39.25
2022-10-19T21:38:31.837Z,38.80
2022-10-19T21:41:23.721Z,37.33
2022-10-19T21:44:11.871Z,39.70
2022-10-19T21:46:57.519Z,39.78
2022-10-19T21:49:42.910Z,39.25
2022-10-19T21:52:28.538Z,38.15
2022-10-19T21:55:14.358Z,37.33
2022-10-19T21:57:59.915Z,38.80
2022-10-19T22:00:45.457Z,39.50
2022-10-19T22:03:31.019Z,40.78
2022-10-19T22:06:16.825Z,41.63
2022-10-19T22:09:04.643Z,39.78
2022-10-19T22:11:50.246Z,41.30
2022-10-19T22:14:35.719Z,44.05
2022-10-19T22:17:21.331Z,43.25
2022-10-19T22:20:07.524Z,45.45
2022-10-19T22:22:54.939Z,44.63
2022-10-19T22:25:40.558Z,44.72
2022-10-19T22:28:27.032Z,44.17
2022-10-19T22:31:13.115Z,44.85
2022-10-19T22:34:01.235Z,42.58
2022-10-19T22:36:46.945Z,41.53
2022-10-19T22:39:32.834Z,40.47
2022-10-19T22:42:56.489Z,38.92
2022-10-19T22:46:20.307Z,38.40
2022-10-19T22:49:43.812Z,39.35
2022-10-19T22:52:57.330Z,41.28
2022-10-19T22:55:42.753Z,38.67
2022-10-19T22:58:28.249Z,38.80
2022-10-19T23:01:15.767Z,40.13
2022-10-19T23:04:01.525Z,42.50
2022-10-19T23:06:47.509Z,43.22
2022-10-19T23:09:32.906Z,42.72
2022-10-19T23:12:18.355Z,41.08
2022-10-19T23:15:04.513Z,40.28
2022-10-19T23:17:50.244Z,39.60
2022-10-19T23:20:35.869Z,39.67
2022-10-19T23:23:21.834Z,40.92
2022-10-19T23:26:11.759Z,42.58
2022-10-19T23:28:57.141Z,42.40
2022-10-19T23:31:43.500Z,42.88
2022-10-19T23:34:29.477Z,43.25
2022-10-19T23:37:15.130Z,43.38
2022-10-19T23:40:01.427Z,44.08
2022-10-19T23:42:47.149Z,43.90
2022-10-19T23:45:32.714Z,43.47
2022-10-19T23:48:18.506Z,43.28
2022-10-19T23:51:08.974Z,42.50
2022-10-19T23:53:55.113Z,42.20
2022-10-19T23:56:40.968Z,43.30
2022-10-19T23:59:26.653Z,42.55
